Time;durP1;ratioP1;P1;durP2;ratioP2;P2;SDS_P1;SDS_P2;PMS_P1;PMS_P2;Temp;Humidity;BMP_temperature;BMP_pressure;BME280_temperature;BME280_humidity;BME280_pressure;Samples;Min_cycle;Max_cycle;Signal;HPM_P1;HPM_P2
2021/12/07 00:02:10;;;;;;;47.40;33.63;;;5.30;81.10;;;;;;5032384;28;20030;-62
2021/12/07 00:04:39;;;;;;;45.17;32.00;;;5.40;85.50;;;;;;5032494;28;20078;-62
2021/12/07 00:07:06;;;;;;;50.17;33.53;;;5.40;81.10;;;;;;5032027;28;20099;-62
2021/12/07 00:09:32;;;;;;;45.50;31.53;;;;;;;;;;5035381;28;20083;-62
2021/12/07 00:12:04;;;;;;;45.77;32.30;;;5.30;85.50;;;;;;5048822;28;20399;-62
2021/12/07 00:14:36;;;;;;;48.90;31.70;;;5.40;80.90;;;;;;5048080;28;20108;-62
2021/12/07 00:17:03;;;;;;;46.00;33.07;;;5.40;79.80;;;;;;5035682;28;20025;-62
2021/12/07 00:19:29;;;;;;;45.37;31.77;;;5.50;79.50;;;;;;5039066;28;20431;-62
2021/12/07 00:21:55;;;;;;;43.90;32.30;;;5.40;78.00;;;;;;5054594;28;20029;-62
2021/12/07 00:24:21;;;;;;;44.97;33.57;;;5.40;78.00;;;;;;5038179;28;20029;-62
2021/12/07 00:26:47;;;;;;;43.23;31.87;;;5.40;77.70;;;;;;5055515;28;20544;-62
2021/12/07 00:29:13;;;;;;;43.50;33.00;;;5.40;77.80;;;;;;5053674;28;20032;-62
2021/12/07 00:31:51;;;;;;;45.87;31.60;;;5.50;77.30;;;;;;5051883;28;20029;-62
2021/12/07 00:34:45;;;;;;;43.13;30.33;;;5.40;76.60;;;;;;5054747;28;20089;-62
2021/12/07 00:37:03;;;;;;;44.60;32.13;;;5.40;76.90;;;;;;5054729;28;20131;-63
2021/12/07 00:39:29;;;;;;;44.03;30.17;;;5.30;76.50;;;;;;5051971;28;20030;-62
2021/12/07 00:41:55;;;;;;;45.13;32.60;;;5.50;76.40;;;;;;5054941;28;20033;-62
2021/12/07 00:44:23;;;;;;;44.73;30.03;;;5.50;76.20;;;;;;5039560;28;20036;-62
2021/12/07 00:46:50;;;;;;;42.73;29.87;;;5.50;75.80;;;;;;5035746;28;20395;-62
2021/12/07 00:49:16;;;;;;;43.23;30.73;;;5.50;75.80;;;;;;5037455;28;20021;-62
2021/12/07 00:51:43;;;;;;;41.70;27.27;;;5.50;75.60;;;;;;5053591;28;20064;-62
2021/12/07 00:54:09;;;;;;;36.47;26.67;;;5.50;73.00;;;;;;5054265;28;20138;-62
2021/12/07 00:56:36;;;;;;;42.93;28.07;;;5.50;73.50;;;;;;5035197;28;20036;-62
2021/12/07 00:59:03;;;;;;;41.53;29.00;;;5.60;74.70;;;;;;5035205;28;20378;-62
2021/12/07 01:01:28;;;;;;;40.13;27.57;;;5.70;75.00;;;;;;5053584;28;20391;-62
2021/12/07 01:03:54;;;;;;;37.63;24.93;;;5.80;74.20;;;;;;5055228;28;20162;-62
2021/12/07 01:24:39;;;;;;;33.13;24.07;;;5.90;72.80;;;;;;5034893;28;20028;-62
2021/12/07 01:26:07;;;;;;;39.90;27.13;;;5.80;70.80;;;;;;5033821;28;20049;-62
2021/12/07 01:28:38;;;;;;;42.93;27.70;;;5.90;72.20;;;;;;5034628;28;20025;-62
2021/12/07 01:36:37;;;;;;;37.25;26.83;;;5.90;72.90;;;;;;5052875;28;20037;-62
2021/12/07 01:40:05;;;;;;;42.10;28.50;;;5.90;72.10;;;;;;5054084;28;20045;-62
2021/12/07 02:00:13;;;;;;;39.33;26.57;;;6.00;72.80;;;;;;5052491;28;20044;-62
2021/12/07 02:02:40;;;;;;;41.13;27.73;;;6.00;72.20;;;;;;5038957;28;20079;-62
2021/12/07 02:05:07;;;;;;;34.63;25.60;;;6.00;71.80;;;;;;5033660;28;20032;-62
2021/12/07 02:07:33;;;;;;;36.60;26.07;;;5.90;71.40;;;;;;5033818;28;20021;-62
2021/12/07 02:10:05;;;;;;;38.00;26.73;;;6.00;71.70;;;;;;5033836;28;20387;-62
2021/12/07 02:12:41;;;;;;;36.43;27.00;;;6.00;71.00;;;;;;5047859;28;20124;-62
2021/12/07 02:15:09;;;;;;;36.60;26.70;;;6.00;71.70;;;;;;5051220;28;20551;-62
2021/12/07 02:17:35;;;;;;;41.40;27.70;;;6.00;71.50;;;;;;5033951;28;20486;-62
2021/12/07 02:20:01;;;;;;;36.67;27.37;;;6.00;71.20;;;;;;5051216;28;20031;-62
2021/12/07 02:22:27;;;;;;;42.03;27.73;;;6.00;71.80;;;;;;5041726;28;20104;-62
2021/12/07 02:24:53;;;;;;;44.00;28.87;;;6.00;71.70;;;;;;5051404;28;20120;-62
2021/12/07 02:27:19;;;;;;;38.63;28.27;;;6.00;72.10;;;;;;5052573;28;20558;-62
2021/12/07 02:29:44;;;;;;;38.43;29.03;;;6.00;71.90;;;;;;5052100;28;20035;-62
2021/12/07 02:32:10;;;;;;;40.17;28.33;;;6.10;72.70;;;;;;5045573;28;20063;-62
2021/12/07 02:34:42;;;;;;;38.77;28.47;;;6.10;72.90;;;;;;5053327;28;20057;-62
2021/12/07 02:37:08;;;;;;;41.67;28.77;;;5.90;71.40;;;;;;5052207;28;20021;-63
2021/12/07 02:39:36;;;;;;;42.17;29.23;;;5.80;71.60;;;;;;5052879;28;20090;-62
2021/12/07 02:42:03;;;;;;;41.67;29.93;;;5.80;72.80;;;;;;5046805;28;20021;-62
2021/12/07 02:44:31;;;;;;;40.10;29.90;;;5.80;72.60;;;;;;5042223;28;20462;-62
2021/12/07 02:46:57;;;;;;;41.10;29.60;;;5.80;72.60;;;;;;5039831;28;20112;-62
2021/12/07 02:49:22;;;;;;;41.73;29.83;;;5.90;72.90;;;;;;5030740;28;20140;-62
2021/12/07 02:51:49;;;;;;;44.00;30.60;;;5.70;72.90;;;;;;5052856;28;20033;-62
2021/12/07 02:54:15;;;;;;;41.37;29.80;;;5.70;73.10;;;;;;5051962;28;20025;-62
2021/12/07 02:56:40;;;;;;;44.93;30.97;;;5.60;72.40;;;;;;5052180;28;20025;-62
2021/12/07 02:59:06;;;;;;;42.10;31.03;;;5.50;72.50;;;;;;5049723;28;20512;-63
2021/12/07 03:01:43;;;;;;;42.67;31.07;;;5.60;73.00;;;;;;5050485;28;20474;-62
2021/12/07 03:04:16;;;;;;;52.00;33.87;;;5.60;73.20;;;;;;5050013;28;20126;-62
2021/12/07 03:26:05;;;;;;;47.37;34.30;;;5.40;74.70;;;;;;5052712;28;20125;-62
2021/12/07 03:28:35;;;;;;;48.20;34.20;;;5.30;74.60;;;;;;5051675;28;20436;-62
2021/12/07 03:31:02;;;;;;;48.60;33.53;;;5.30;74.80;;;;;;5051439;28;20052;-62
2021/12/07 03:33:28;;;;;;;55.93;35.67;;;5.30;74.10;;;;;;5049459;28;20081;-62
2021/12/07 03:35:54;;;;;;;50.60;36.10;;;5.20;74.60;;;;;;5050906;28;20512;-62
2021/12/07 03:38:20;;;;;;;49.50;34.93;;;5.20;75.40;;;;;;5042772;28;20046;-62
2021/12/07 03:40:46;;;;;;;48.93;36.40;;;5.20;74.70;;;;;;5035855;28;20025;-62
2021/12/07 03:43:13;;;;;;;53.33;36.33;;;5.30;75.30;;;;;;5051432;28;20021;-62
2021/12/07 03:45:38;;;;;;;45.80;33.90;;;5.10;74.70;;;;;;5052253;28;20033;-62
2021/12/07 03:48:06;;;;;;;46.63;32.83;;;5.30;75.40;;;;;;5051559;28;20036;-62
2021/12/07 03:50:32;;;;;;;48.60;33.60;;;5.20;74.50;;;;;;5054879;28;20033;-62
2021/12/07 03:52:57;;;;;;;44.30;31.30;;;5.20;74.90;;;;;;5054879;28;20049;-62
2021/12/07 03:55:23;;;;;;;42.57;30.60;;;5.20;74.70;;;;;;5056333;28;20068;-62
2021/12/07 03:57:49;;;;;;;41.93;30.33;;;;;;;;;;5054350;28;20398;-62
2021/12/07 04:01:06;;;;;;;45.07;31.80;;;5.10;51.70;;;;;;5056162;28;20458;-62
2021/12/07 04:03:34;;;;;;;44.27;30.87;;;5.30;53.70;;;;;;5047921;28;20033;-62
2021/12/07 04:06:04;;;;;;;41.03;29.70;;;5.30;53.80;;;;;;5055826;28;20033;-62
2021/12/07 04:08:31;;;;;;;38.50;27.40;;;5.20;53.10;;;;;;5055127;28;20033;-62
2021/12/07 04:10:57;;;;;;;37.67;26.87;;;5.20;53.60;;;;;;5055847;28;20029;-62
2021/12/07 04:13:23;;;;;;;37.13;25.70;;;5.20;52.00;;;;;;5039699;28;20025;-62
2021/12/07 04:15:49;;;;;;;32.40;23.30;;;5.20;52.00;;;;;;5036075;28;20025;-62
2021/12/07 04:18:15;;;;;;;36.60;24.40;;;5.20;51.80;;;;;;5047469;28;20398;-62
2021/12/07 04:20:41;;;;;;;32.03;24.23;;;5.20;51.00;;;;;;5055349;28;20029;-62
2021/12/07 04:23:07;;;;;;;34.33;23.17;;;5.20;50.70;;;;;;5052375;28;20025;-62
2021/12/07 04:25:34;;;;;;;33.43;23.37;;;5.10;51.00;;;;;;5055802;28;20390;-62
2021/12/07 04:28:00;;;;;;;32.13;22.40;;;5.20;51.20;;;;;;5055013;28;20086;-63
2021/12/07 04:30:30;;;;;;;31.27;22.93;;;5.20;49.60;;;;;;5055532;28;20017;-62
2021/12/07 04:32:56;;;;;;;28.43;20.77;;;5.30;49.40;;;;;;5054541;28;20105;-62
2021/12/07 04:35:22;;;;;;;31.40;22.13;;;5.30;49.10;;;;;;5054154;28;20382;-62
2021/12/07 04:37:48;;;;;;;33.00;21.53;;;5.20;49.10;;;;;;5053971;28;20059;-63
2021/12/07 04:40:18;;;;;;;33.37;21.27;;;5.20;47.00;;;;;;5054171;28;20504;-62
2021/12/07 04:42:45;;;;;;;31.77;22.67;;;5.20;49.20;;;;;;5054277;28;20032;-62
2021/12/07 04:45:25;;;;;;;31.03;22.57;;;5.10;49.60;;;;;;5045004;28;20057;-62
2021/12/07 04:58:30;;;;;;;37.95;27.08;;;5.10;51.00;;;;;;5049685;28;20112;-62
2021/12/07 05:00:56;;;;;;;39.93;27.27;;;5.10;51.50;;;;;;5049914;28;20032;-62
2021/12/07 05:03:23;;;;;;;33.20;24.67;;;5.10;52.00;;;;;;5051002;28;20025;-62
2021/12/07 05:05:52;;;;;;;35.23;25.90;;;5.10;52.50;;;;;;5052172;28;20043;-62
2021/12/07 05:09:21;;;;;;;35.23;25.57;;;5.00;53.60;;;;;;5053117;28;20025;-62
2021/12/07 05:16:26;;;;;;;36.73;25.77;;;5.10;65.40;;;;;;5053045;28;20037;-62
2021/12/07 05:24:20;;;;;;;37.20;26.60;;;5.00;66.30;;;;;;5051589;28;20041;-63
2021/12/07 05:37:50;;;;;;;37.43;24.07;;;5.00;68.00;;;;;;5052818;28;19916;-63
2021/12/07 05:40:35;;;;;;;33.13;23.47;;;5.00;67.90;;;;;;5054333;28;20092;-63
2021/12/07 05:43:02;;;;;;;33.70;23.13;;;5.10;68.70;;;;;;5041095;28;20024;-62
2021/12/07 05:45:37;;;;;;;34.53;23.37;;;5.10;66.30;;;;;;5054263;28;20092;-62
2021/12/07 05:48:04;;;;;;;36.50;22.90;;;5.00;66.10;;;;;;5051350;28;20032;-63
2021/12/07 05:50:34;;;;;;;30.27;21.87;;;5.10;66.30;;;;;;5054083;28;20091;-63
2021/12/07 05:53:00;;;;;;;30.30;21.60;;;5.20;66.40;;;;;;5052881;28;20032;-63
2021/12/07 05:55:26;;;;;;;27.30;19.47;;;5.20;64.70;;;;;;5054102;28;20032;-62
2021/12/07 05:57:52;;;;;;;29.80;20.53;;;5.20;64.70;;;;;;5052368;28;20414;-63
2021/12/07 06:00:26;;;;;;;28.37;19.60;;;5.20;65.60;;;;;;5054102;28;20029;-62
2021/12/07 06:02:58;;;;;;;29.58;20.75;;;5.20;65.60;;;;;;5052371;28;20033;-63
2021/12/07 06:05:25;;;;;;;31.07;19.77;;;5.20;65.90;;;;;;5053927;28;20033;-63
2021/12/07 06:07:50;;;;;;;30.27;19.30;;;5.20;64.60;;;;;;5050675;28;20037;-62
2021/12/07 06:10:16;;;;;;;30.67;19.13;;;5.20;63.20;;;;;;5052183;28;20025;-62
2021/12/07 06:12:42;;;;;;;24.53;16.03;;;5.20;64.20;;;;;;5051965;28;20382;-63
2021/12/07 06:15:09;;;;;;;24.13;14.43;;;5.20;60.80;;;;;;5053605;28;20033;-63
2021/12/07 06:17:34;;;;;;;17.83;14.03;;;5.20;58.80;;;;;;5034636;28;20043;-63
2021/12/07 06:20:00;;;;;;;16.93;12.50;;;5.20;60.00;;;;;;5053727;28;20033;-63
2021/12/07 06:22:26;;;;;;;18.30;12.13;;;5.20;59.10;;;;;;5051569;28;20478;-63
2021/12/07 06:24:51;;;;;;;17.93;12.33;;;5.20;59.40;;;;;;5051521;28;20490;-63
2021/12/07 06:27:17;;;;;;;29.50;21.33;;;5.20;59.50;;;;;;5051923;28;20040;-63
2021/12/07 06:29:43;;;;;;;34.70;25.33;;;5.20;61.50;;;;;;5052513;28;20470;-63
2021/12/07 06:32:09;;;;;;;40.03;27.47;;;5.10;64.00;;;;;;5050419;28;20107;-63
2021/12/07 06:34:34;;;;;;;38.03;27.27;;;5.00;64.50;;;;;;5041937;28;20104;-63
2021/12/07 06:37:00;;;;;;;41.57;28.40;;;4.80;65.20;;;;;;5033025;28;20033;-63
2021/12/07 06:39:26;;;;;;;36.97;27.00;;;4.80;65.70;;;;;;5049488;28;20072;-63
2021/12/07 06:41:52;;;;;;;41.10;28.93;;;4.80;65.60;;;;;;5051245;28;20052;-63
2021/12/07 06:44:41;;;;;;;43.57;29.40;;;4.60;53.00;;;;;;5048092;28;20033;-63
2021/12/07 06:47:07;;;;;;;39.00;27.60;;;4.60;51.10;;;;;;5049683;28;20052;-62
2021/12/07 06:49:33;;;;;;;40.83;28.77;;;4.50;56.40;;;;;;5051591;28;20025;-63
2021/12/07 06:51:58;;;;;;;40.07;27.93;;;4.50;61.30;;;;;;5052475;28;20505;-62
2021/12/07 06:54:25;;;;;;;43.23;28.30;;;4.40;64.70;;;;;;5051865;28;20033;-62
2021/12/07 06:56:53;;;;;;;37.93;27.50;;;4.50;67.90;;;;;;5052793;28;20032;-62
2021/12/07 06:59:18;;;;;;;40.63;27.57;;;4.40;70.30;;;;;;5050884;28;20028;-63
2021/12/07 07:01:45;;;;;;;38.40;28.10;;;4.40;68.00;;;;;;5052786;28;20075;-63
2021/12/07 07:04:12;;;;;;;37.07;26.53;;;;;;;;;;5051153;28;20398;-63
2021/12/07 07:06:39;;;;;;;37.43;26.77;;;;;;;;;;5052339;28;20544;-63
2021/12/07 07:09:05;;;;;;;42.73;28.00;;;4.20;64.00;;;;;;5050385;28;20025;-62
2021/12/07 07:11:31;;;;;;;44.37;28.40;;;4.20;64.90;;;;;;5052749;28;20498;-63
2021/12/07 07:13:58;;;;;;;41.50;27.93;;;4.40;64.30;;;;;;5051261;28;20471;-62
2021/12/07 07:16:23;;;;;;;43.33;28.70;;;4.40;63.90;;;;;;5051380;28;20035;-63
2021/12/07 07:18:49;;;;;;;38.50;26.90;;;4.50;63.80;;;;;;5039509;28;20479;-62
2021/12/07 07:21:15;;;;;;;40.87;27.47;;;4.40;63.30;;;;;;5032759;28;20029;-62
2021/12/07 07:23:41;;;;;;;42.47;27.73;;;4.20;63.40;;;;;;5042375;28;20057;-62
2021/12/07 07:26:07;;;;;;;37.63;27.77;;;4.30;63.20;;;;;;5054723;28;20033;-62
2021/12/07 07:28:34;;;;;;;36.17;26.50;;;4.30;63.10;;;;;;5055178;28;20025;-63
2021/12/07 07:31:00;;;;;;;40.30;24.40;;;4.50;63.80;;;;;;5056605;28;20037;-62
2021/12/07 07:33:26;;;;;;;36.40;26.20;;;4.40;60.70;;;;;;5055365;28;20029;-63
2021/12/07 07:35:52;;;;;;;39.43;25.13;;;4.40;61.90;;;;;;5056750;28;20091;-63
2021/12/07 07:38:19;;;;;;;37.50;24.93;;;4.50;62.60;;;;;;5054873;28;20125;-62
2021/12/07 07:40:46;;;;;;;35.40;25.00;;;4.50;61.80;;;;;;5056693;28;20036;-62
2021/12/07 07:43:13;;;;;;;34.37;22.43;;;4.50;61.60;;;;;;5053965;28;20517;-62
2021/12/07 07:45:39;;;;;;;39.43;22.13;;;4.40;60.30;;;;;;5056529;28;20049;-63
2021/12/07 07:48:05;;;;;;;31.80;21.43;;;4.40;59.60;;;;;;5055473;28;20044;-62
2021/12/07 07:50:31;;;;;;;32.33;20.97;;;4.40;60.10;;;;;;5053729;28;20025;-62
2021/12/07 07:52:56;;;;;;;29.60;20.77;;;4.50;59.30;;;;;;5055136;28;20378;-62
2021/12/07 07:55:22;;;;;;;28.50;20.33;;;4.50;60.50;;;;;;5050740;28;20116;-63
2021/12/07 07:57:48;;;;;;;25.90;18.77;;;4.50;59.70;;;;;;5033802;28;20556;-63
2021/12/07 08:00:17;;;;;;;27.60;18.70;;;4.50;58.50;;;;;;5035577;28;20021;-62
2021/12/07 08:02:44;;;;;;;29.87;18.90;;;4.50;59.00;;;;;;5037185;28;20033;-62
2021/12/07 08:05:10;;;;;;;28.30;18.03;;;4.50;58.60;;;;;;5055337;28;20028;-63
2021/12/07 08:07:36;;;;;;;25.80;17.57;;;4.40;56.80;;;;;;5055882;28;20048;-62
2021/12/07 08:10:04;;;;;;;25.40;18.03;;;4.50;58.70;;;;;;5053680;28;20029;-63
2021/12/07 08:12:29;;;;;;;28.97;18.77;;;4.40;55.90;;;;;;5055594;28;20033;-63
2021/12/07 08:14:55;;;;;;;25.60;18.33;;;4.40;58.40;;;;;;5044608;28;20040;-62
2021/12/07 08:17:21;;;;;;;27.00;18.60;;;4.50;57.90;;;;;;5047029;28;20115;-62
2021/12/07 08:19:46;;;;;;;28.17;18.40;;;4.50;57.30;;;;;;5054948;28;20043;-62
2021/12/07 08:22:12;;;;;;;26.33;19.53;;;4.60;57.80;;;;;;5055046;28;20107;-62
2021/12/07 08:24:38;;;;;;;25.47;18.10;;;4.70;58.10;;;;;;5053946;28;20433;-62
2021/12/07 08:27:03;;;;;;;26.27;20.23;;;4.60;58.00;;;;;;5053260;28;20463;-62
2021/12/07 08:29:29;;;;;;;26.73;19.37;;;4.70;57.20;;;;;;5050732;28;20028;-62
2021/12/07 08:31:55;;;;;;;31.83;20.10;;;4.70;58.10;;;;;;5055317;28;20033;-62
2021/12/07 08:34:20;;;;;;;31.97;20.33;;;4.70;57.20;;;;;;5054244;28;20033;-63
2021/12/07 08:36:46;;;;;;;27.30;18.43;;;4.80;57.40;;;;;;5053716;28;20166;-62
2021/12/07 08:39:13;;;;;;;25.83;18.70;;;4.80;56.20;;;;;;5054342;28;20049;-62
2021/12/07 08:41:39;;;;;;;26.33;19.67;;;4.90;57.30;;;;;;5054971;28;20108;-62
2021/12/07 08:44:04;;;;;;;27.83;19.90;;;4.80;56.80;;;;;;5054236;28;20164;-62
2021/12/07 08:46:30;;;;;;;24.00;17.93;;;4.90;57.10;;;;;;5055227;28;20041;-62
2021/12/07 08:48:55;;;;;;;28.80;17.77;;;4.90;55.60;;;;;;5047412;28;20030;-62
2021/12/07 08:51:21;;;;;;;27.03;18.47;;;4.90;56.30;;;;;;5052512;28;20039;-62
2021/12/07 08:54:03;;;;;;;24.63;16.63;;;4.90;56.00;;;;;;5048574;28;20387;-61
2021/12/07 09:01:58;;;;;;;20.43;15.00;;;5.00;54.10;;;;;;5054562;28;20051;-62
2021/12/07 09:04:23;;;;;;;22.57;13.67;;;5.00;52.50;;;;;;5052795;28;20502;-62
2021/12/07 09:06:50;;;;;;;21.37;14.90;;;5.10;53.20;;;;;;5053720;28;20372;-62
2021/12/07 09:09:16;;;;;;;19.43;14.30;;;5.20;54.60;;;;;;5054049;28;20051;-62
2021/12/07 09:11:43;;;;;;;18.87;14.07;;;5.20;53.30;;;;;;5034714;28;20483;-62
2021/12/07 09:14:11;;;;;;;22.03;14.53;;;5.20;51.90;;;;;;5042663;28;20551;-62
2021/12/07 09:16:37;;;;;;;22.17;14.00;;;5.30;54.00;;;;;;5053200;28;20411;-62
2021/12/07 09:19:04;;;;;;;20.10;15.07;;;5.30;51.20;;;;;;5054110;28;20025;-62
2021/12/07 09:21:31;;;;;;;19.63;14.23;;;5.40;52.10;;;;;;5053444;28;20041;-62
2021/12/07 09:23:56;;;;;;;20.33;13.13;;;5.40;52.20;;;;;;5054695;28;20029;-62
2021/12/07 09:26:22;;;;;;;19.60;12.13;;;5.40;51.30;;;;;;5052229;28;20402;-62
2021/12/07 09:28:48;;;;;;;16.27;11.80;;;5.50;51.60;;;;;;5053778;28;20021;-62
2021/12/07 09:31:14;;;;;;;17.23;11.83;;;5.50;48.90;;;;;;5053435;28;20029;-61
2021/12/07 09:33:41;;;;;;;16.57;11.83;;;5.50;50.50;;;;;;5052609;28;20434;-62
2021/12/07 09:36:10;;;;;;;20.70;12.57;;;5.60;49.90;;;;;;5053213;28;20063;-62
2021/12/07 09:38:37;;;;;;;18.90;12.43;;;5.70;50.00;;;;;;5044141;28;20060;-62
2021/12/07 09:41:10;;;;;;;20.67;13.23;;;5.80;50.50;;;;;;5046009;28;20021;-62
2021/12/07 09:43:36;;;;;;;15.57;11.63;;;5.80;50.60;;;;;;5052864;28;20044;-62
2021/12/07 09:46:03;;;;;;;16.53;11.00;;;5.80;47.90;;;;;;5051994;28;20040;-62
2021/12/07 09:48:29;;;;;;;18.50;10.30;;;5.90;50.50;;;;;;5053247;28;20421;-62
2021/12/07 09:50:56;;;;;;;12.63;9.50;;;5.90;48.70;;;;;;5047193;28;20090;-62
2021/12/07 09:53:23;;;;;;;17.70;9.20;;;6.00;48.20;;;;;;5053992;28;20078;-62
2021/12/07 09:55:49;;;;;;;17.43;9.37;;;6.00;47.10;;;;;;5053020;28;20032;-62
2021/12/07 09:58:16;;;;;;;11.40;7.50;;;6.00;46.20;;;;;;5051799;28;20021;-62
2021/12/07 10:00:44;;;;;;;11.93;8.20;;;6.00;47.30;;;;;;5039895;28;20382;-62
2021/12/07 10:03:10;;;;;;;12.80;6.30;;;6.00;46.60;;;;;;5050943;28;20029;-62
2021/12/07 10:05:36;;;;;;;13.30;7.03;;;6.00;44.20;;;;;;5053495;28;20061;-61
2021/12/07 10:08:05;;;;;;;10.50;6.23;;;6.10;45.20;;;;;;5051341;28;20547;-62
2021/12/07 10:10:37;;;;;;;14.83;7.40;;;6.10;47.50;;;;;;5052623;28;20033;-62
2021/12/07 10:13:06;;;;;;;11.23;7.33;;;6.10;44.60;;;;;;5052784;28;20382;-62
2021/12/07 10:15:32;;;;;;;13.13;7.20;;;6.10;48.10;;;;;;5036720;28;20041;-62
2021/12/07 10:18:07;;;;;;;13.40;7.43;;;6.10;43.90;;;;;;5035644;28;20029;-62
2021/12/07 10:21:10;;;;;;;11.40;7.63;;;6.20;47.20;;;;;;5053211;28;20029;-62
2021/12/07 10:23:39;;;;;;;13.70;8.40;;;6.20;44.80;;;;;;5029185;28;20048;-62
2021/12/07 10:26:09;;;;;;;10.50;7.70;;;6.20;47.00;;;;;;5050594;28;20041;-62
2021/12/07 10:28:45;;;;;;;11.43;7.70;;;6.30;44.90;;;;;;5051096;28;20098;-61
2021/12/07 10:31:10;;;;;;;14.00;8.47;;;6.30;45.80;;;;;;5051489;28;20044;-62
2021/12/07 10:33:43;;;;;;;14.23;9.03;;;6.30;47.00;;;;;;5050317;28;20041;-61
2021/12/07 10:36:13;;;;;;;15.70;8.43;;;6.40;46.30;;;;;;5050862;28;20391;-61
2021/12/07 10:38:40;;;;;;;13.97;7.97;;;6.50;44.50;;;;;;5052056;28;20494;-62
2021/12/07 10:41:10;;;;;;;14.43;7.63;;;6.50;46.40;;;;;;5052855;28;20108;-61
2021/12/07 10:43:57;;;;;;;13.90;8.33;;;6.60;40.70;;;;;;5045688;28;20060;-62
2021/12/07 10:46:37;;;;;;;14.67;7.93;;;6.70;47.60;;;;;;5042059;28;20037;-61
2021/12/07 10:49:32;;;;;;;11.77;7.57;;;6.70;46.60;;;;;;5051925;28;20104;-62
2021/12/07 10:52:07;;;;;;;;;;;6.70;49.30;;;;;;5053062;28;20033;-62
2021/12/07 10:54:56;;;;;;;14.03;9.53;;;6.80;46.50;;;;;;5046057;28;19916;-62
2021/12/07 10:57:23;;;;;;;16.00;8.07;;;6.80;43.00;;;;;;5029768;28;20526;-61
2021/12/07 10:59:54;;;;;;;13.20;8.23;;;7.00;40.90;;;;;;5047193;28;20033;-61
2021/12/07 11:02:21;;;;;;;15.37;10.20;;;7.00;46.80;;;;;;5052317;28;20027;-62
2021/12/07 11:04:48;;;;;;;14.13;10.10;;;7.00;46.00;;;;;;5052510;28;20025;-62
2021/12/07 11:07:29;;;;;;;12.57;8.77;;;7.00;47.10;;;;;;5051737;28;20040;-62
2021/12/07 11:10:08;;;;;;;13.97;8.20;;;7.00;45.20;;;;;;5032452;28;20036;-61
2021/12/07 11:12:44;;;;;;;14.73;8.50;;;7.10;44.90;;;;;;5049085;28;20026;-62
2021/12/07 11:15:17;;;;;;;12.50;7.40;;;7.10;43.90;;;;;;5046964;28;20022;-62
2021/12/07 11:17:43;;;;;;;11.03;8.17;;;7.10;43.00;;;;;;5034985;28;20017;-62
2021/12/07 11:20:11;;;;;;;19.17;10.90;;;7.20;45.60;;;;;;5052711;28;20025;-62
2021/12/07 11:22:42;;;;;;;17.27;10.43;;;7.20;45.70;;;;;;5051776;28;20033;-62
2021/12/07 11:25:10;;;;;;;15.97;10.60;;;7.20;52.40;;;;;;5043575;28;20057;-62
2021/12/07 11:30:28;;;;;;;16.73;10.80;;;7.20;50.20;;;;;;5032808;28;20055;-62
2021/12/07 11:33:47;;;;;;;17.95;11.43;;;7.30;42.60;;;;;;5034246;28;20082;-62
2021/12/07 11:36:20;;;;;;;24.20;13.10;;;7.30;41.30;;;;;;5032598;28;20037;-62
2021/12/07 11:38:47;;;;;;;19.27;10.97;;;7.40;43.50;;;;;;5042436;28;20439;-62
2021/12/07 11:41:21;;;;;;;21.33;10.57;;;7.40;43.20;;;;;;5052571;28;20021;-62
2021/12/07 11:43:53;;;;;;;16.67;11.02;;;7.50;43.20;;;;;;5051630;28;20025;-62
2021/12/07 11:46:20;;;;;;;14.97;9.93;;;;;;;;;;5052639;28;20036;-62
2021/12/07 11:48:46;;;;;;;18.23;10.90;;;7.60;36.20;;;;;;5050385;28;20060;-62
2021/12/07 11:51:11;;;;;;;17.40;10.37;;;7.50;37.90;;;;;;5050645;28;20029;-62
2021/12/07 11:53:37;;;;;;;16.87;11.23;;;7.60;37.00;;;;;;5051564;28;20044;-63
2021/12/07 11:56:03;;;;;;;17.20;11.57;;;7.60;37.50;;;;;;5052300;28;20044;-62
2021/12/07 11:58:29;;;;;;;13.70;10.47;;;7.60;38.90;;;;;;5051352;28;20017;-62
2021/12/07 12:00:57;;;;;;;13.10;9.30;;;7.70;43.30;;;;;;5052220;28;20494;-62
2021/12/07 12:03:25;;;;;;;14.07;9.80;;;7.60;42.40;;;;;;5051949;28;20022;-62
2021/12/07 12:05:53;;;;;;;14.60;10.63;;;7.60;43.20;;;;;;5052195;28;20044;-62
2021/12/07 12:08:20;;;;;;;13.77;9.57;;;7.70;44.30;;;;;;5050768;28;20024;-62
2021/12/07 12:10:53;;;;;;;13.83;9.73;;;7.70;45.00;;;;;;5053377;28;20483;-63
2021/12/07 12:13:58;;;;;;;13.73;9.83;;;7.70;49.90;;;;;;5052983;28;20029;-63
2021/12/07 12:17:04;;;;;;;10.25;7.72;;;7.70;49.60;;;;;;5055067;28;20037;-62
2021/12/07 12:19:38;;;;;;;15.73;11.87;;;7.70;51.10;;;;;;5011352;28;20030;-62
2021/12/07 12:22:25;;;;;;;15.52;12.40;;;7.70;51.50;;;;;;5013322;28;20084;-62
2021/12/07 12:24:54;;;;;;;22.60;14.07;;;7.60;52.30;;;;;;5012462;28;20208;-62
2021/12/07 12:27:31;;;;;;;20.00;13.13;;;7.60;52.40;;;;;;4995797;28;20042;-62
2021/12/07 12:29:59;;;;;;;17.53;10.90;;;7.60;52.50;;;;;;5013052;28;20030;-62
2021/12/07 12:32:36;;;;;;;18.63;12.03;;;7.60;52.00;;;;;;5013804;28;20029;-62
2021/12/07 12:35:04;;;;;;;17.53;12.60;;;7.60;52.40;;;;;;5010579;28;20029;-62
2021/12/07 12:37:31;;;;;;;16.17;10.67;;;7.60;52.10;;;;;;4994997;28;20042;-62
2021/12/07 12:40:05;;;;;;;16.37;10.43;;;7.70;51.40;;;;;;5012547;28;20407;-62
2021/12/07 12:42:40;;;;;;;15.73;11.27;;;7.60;51.70;;;;;;5013607;28;20030;-62
2021/12/07 12:45:22;;;;;;;13.87;10.00;;;7.80;50.70;;;;;;4996264;28;20037;-63
2021/12/07 12:47:58;;;;;;;14.47;9.47;;;7.80;50.90;;;;;;5013064;28;20508;-62
2021/12/07 12:50:27;;;;;;;11.93;8.93;;;;;;;;;;5025833;28;20091;-62
2021/12/07 12:53:01;;;;;;;17.37;9.47;;;7.80;53.00;;;;;;5035390;28;20017;-62
2021/12/07 12:55:32;;;;;;;15.57;9.48;;;7.80;52.90;;;;;;5054227;28;20025;-62
2021/12/07 12:58:09;;;;;;;12.57;9.33;;;7.90;53.70;;;;;;5054391;28;20060;-62
2021/12/07 13:01:16;;;;;;;11.50;8.43;;;7.90;53.70;;;;;;5054179;28;20029;-62
2021/12/07 13:09:39;;;;;;;14.83;10.03;;;7.90;48.60;;;;;;5041593;28;20112;-63
2021/12/07 13:12:07;;;;;;;13.13;8.83;;;8.00;48.40;;;;;;5037087;28;20033;-62
2021/12/07 13:14:39;;;;;;;13.67;8.20;;;8.10;48.40;;;;;;5045169;28;20044;-62
2021/12/07 13:17:13;;;;;;;12.93;8.00;;;8.00;39.60;;;;;;5054602;28;20036;-62
2021/12/07 13:20:16;;;;;;;12.70;8.88;;;8.00;40.90;;;;;;5053494;28;20021;-62
2021/12/07 13:23:00;;;;;;;11.50;8.90;;;8.10;41.10;;;;;;5052601;28;20051;-62
2021/12/07 13:25:48;;;;;;;12.17;8.00;;;8.10;41.40;;;;;;5052850;28;20036;-62
2021/12/07 13:28:31;;;;;;;8.57;6.93;;;8.20;40.60;;;;;;5054354;28;20029;-62
2021/12/07 13:31:03;;;;;;;8.33;6.57;;;8.20;40.40;;;;;;5034418;28;20093;-62
2021/12/07 13:34:04;;;;;;;11.47;7.97;;;8.20;41.40;;;;;;5048364;28;20041;-63
2021/12/07 13:36:33;;;;;;;7.93;6.83;;;8.30;48.50;;;;;;4976542;28;20519;-63
2021/12/07 13:39:12;;;;;;;10.00;6.60;;;8.30;60.70;;;;;;4991365;28;20046;-62
2021/12/07 13:42:03;;;;;;;10.27;7.33;;;8.40;61.10;;;;;;4992437;28;20038;-62
2021/12/07 13:44:32;;;;;;;7.57;5.93;;;8.40;51.50;;;;;;4991607;28;20046;-62
2021/12/07 13:47:04;;;;;;;10.93;6.67;;;8.40;51.60;;;;;;4992073;28;20042;-62
2021/12/07 13:49:33;;;;;;;11.97;6.37;;;8.40;60.20;;;;;;4974962;28;20026;-63
2021/12/07 13:51:59;;;;;;;10.43;6.80;;;8.50;59.80;;;;;;4972832;28;20042;-63
2021/12/07 13:54:25;;;;;;;8.80;6.77;;;8.50;55.50;;;;;;4979981;28;20503;-63
2021/12/07 13:56:53;;;;;;;9.20;6.10;;;8.50;56.30;;;;;;4987898;28;20058;-63
2021/12/07 13:59:22;;;;;;;7.97;6.10;;;8.60;55.40;;;;;;4989344;28;20084;-63
2021/12/07 14:01:55;;;;;;;8.17;5.73;;;8.60;57.70;;;;;;4984566;28;20030;-63
2021/12/07 14:04:24;;;;;;;7.60;5.03;;;8.60;52.70;;;;;;4975121;28;20465;-63
2021/12/07 14:06:51;;;;;;;7.27;5.67;;;8.60;53.10;;;;;;4991162;28;20130;-63
2021/12/07 14:09:17;;;;;;;9.20;5.97;;;8.60;50.90;;;;;;4991759;28;20031;-63
2021/12/07 14:11:49;;;;;;;6.83;5.80;;;8.60;51.90;;;;;;5037117;28;20035;-63
2021/12/07 14:14:16;;;;;;;8.23;5.37;;;8.60;51.20;;;;;;5053569;28;20036;-63
2021/12/07 14:16:43;;;;;;;11.57;6.27;;;8.70;49.20;;;;;;5048953;28;20032;-63
2021/12/07 14:19:09;;;;;;;9.67;6.23;;;8.70;48.80;;;;;;5047379;28;20086;-63
2021/12/07 14:21:35;;;;;;;9.93;5.63;;;8.70;48.40;;;;;;5051055;28;20548;-62
2021/12/07 14:24:04;;;;;;;7.10;5.57;;;8.70;48.20;;;;;;5051490;28;20041;-63
2021/12/07 14:26:34;;;;;;;9.37;6.03;;;8.60;48.70;;;;;;5052060;28;20196;-63
2021/12/07 14:29:15;;;;;;;8.80;5.53;;;8.60;49.60;;;;;;5044343;28;20029;-63
2021/12/07 14:31:46;;;;;;;7.20;5.40;;;8.60;51.40;;;;;;5035857;28;20568;-62
2021/12/07 14:34:20;;;;;;;10.77;6.33;;;8.60;49.70;;;;;;5052879;28;20029;-63
2021/12/07 14:37:04;;;;;;;8.53;6.63;;;8.60;50.70;;;;;;5052218;28;20032;-63
2021/12/07 14:39:54;;;;;;;10.00;6.37;;;8.60;50.00;;;;;;5052994;28;20453;-63
2021/12/07 14:42:21;;;;;;;12.07;7.67;;;8.70;51.20;;;;;;5052228;28;20024;-63
2021/12/07 14:44:50;;;;;;;12.27;8.37;;;8.50;52.50;;;;;;5046894;28;20060;-63